Time;durP1;ratioP1;P1;durP2;ratioP2;P2;SDS_P1;SDS_P2;PMS_P1;PMS_P2;Temp;Humidity;BMP_temperature;BMP_pressure;BME280_temperature;BME280_humidity;BME280_pressure;Samples;Min_cycle;Max_cycle;Signal;HPM_P1;HPM_P2
2022/05/19 03:44:36;;;;;;;;;;;;;;;7.32;92.50;99827.28;6212181;22;19939;-87
2022/05/19 03:47:10;;;;;;;;;;;;;;;7.27;93.25;99818.66;6215936;23;19916;-87
2022/05/19 03:49:38;;;;;;;;;;;;;;;7.34;93.93;99827.25;6216305;23;20007;-87
2022/05/19 03:52:04;;;;;;;;;;;;;;;7.33;94.26;99836.94;6215986;23;20327;-85
2022/05/19 03:54:36;;;;;;;;;;;;;;;7.33;94.45;99842.22;6216060;23;19967;-88
2022/05/19 03:57:06;;;;;;;;;;;;;;;7.26;94.21;99840.66;6216310;23;19912;-88
2022/05/19 03:59:34;;;;;;;;;;;;;;;7.36;94.89;99842.13;6214503;23;19912;-87
2022/05/19 04:02:01;;;;;;;;;;;;;;;7.27;94.52;99834.47;6189245;23;19916;-86
2022/05/19 04:04:26;;;;;;;;;;;;;;;7.36;94.58;99831.56;6214130;23;19997;-86
2022/05/19 04:06:51;;;;;;;;;;;;;;;7.31;94.66;99835.25;6215820;23;19912;-86
2022/05/19 04:09:19;;;;;;;;;;;;;;;7.33;94.70;99847.47;6215617;23;19912;-87
2022/05/19 04:11:45;;;;;;;;;;;;;;;7.37;94.51;99854.41;6214084;23;19919;-88
2022/05/19 04:14:11;;;;;;;;;;;;;;;7.34;94.34;99846.59;6212890;23;19912;-87
2022/05/19 04:16:37;;;;;;;;;;;;;;;7.33;94.45;99847.47;6215703;23;19915;-85
2022/05/19 04:19:02;;;;;;;;;;;;;;;7.32;94.69;99856.28;6214181;23;20260;-86
2022/05/19 04:21:33;;;;;;;;;;;;;;;7.24;94.69;99858.28;6189278;23;19935;-88
2022/05/19 04:24:29;;;;;;;;;;;;;;;;;;;;;
2022/05/19 04:27:27;;;;;;;;;;;;;;;;;;;;;
2022/05/19 04:29:54;;;;;;;;;;;;;;;7.23;95.24;99857.41;6204205;23;19987;-89
2022/05/19 04:32:28;;;;;;;;;;;;;;;7.36;95.75;99852.66;6215480;23;19916;-88
2022/05/19 04:35:26;;;;;;;;;;;;;;;7.30;95.69;99850.19;6215917;23;20350;-89
2022/05/19 04:38:00;;;;;;;;;;;;;;;;;;;;;
2022/05/19 04:41:14;;;;;;;;;;;;;;;;;;;;;
2022/05/19 04:43:57;;;;;;;;;;;;;;;7.29;96.22;99853.72;6211827;23;20282;-87
2022/05/19 04:49:34;;;;;;;;;;;;;;;7.25;96.31;99860.88;6204021;23;20278;-88
2022/05/19 04:52:29;;;;;;;;;;;;;;;;;;;;;
2022/05/19 04:55:21;;;;;;;;;;;;;;;7.26;96.52;99859.97;6215175;23;20011;-88
2022/05/19 04:57:51;;;;;;;;;;;;;;;7.17;95.49;99878.66;6215545;23;19939;-88
2022/05/19 05:00:36;;;;;;;;;;;;;;;7.15;94.93;99867.31;6213965;23;19939;-89
2022/05/19 05:03:04;;;;;;;;;;;;;;;7.23;94.29;99867.97;6214032;23;19920;-89
2022/05/19 05:05:41;;;;;;;;;;;;;;;7.21;93.58;99864.53;6214921;23;19962;-88
2022/05/19 05:08:16;;;;;;;;;;;;;;;;;;;;;
2022/05/19 05:10:44;;;;;;;;;;;;;;;7.23;92.92;99859.22;6215141;23;19995;-87
2022/05/19 05:13:13;;;;;;;;;;;;;;;7.13;92.27;99865.63;6213547;23;19912;-87
2022/05/19 05:15:49;;;;;;;;;;;;;;;7.13;91.87;99870.88;6215361;23;19912;-87
2022/05/19 05:18:14;;;;;;;;;;;;;;;7.17;92.25;99877.81;6215045;23;19920;-87
2022/05/19 05:20:51;;;;;;;;;;;;;;;7.32;92.84;99874.72;6215430;23;19912;-87
2022/05/19 05:23:17;;;;;;;;;;;;;;;7.05;91.72;99873.72;6214993;23;19912;-87
2022/05/19 05:25:44;;;;;;;;;;;;;;;7.16;91.73;99881.34;6213353;23;19922;-87
2022/05/19 05:28:15;;;;;;;;;;;;;;;7.19;92.12;99863.66;6186894;23;19916;-86
2022/05/19 05:30:40;;;;;;;;;;;;;;;7.28;92.03;99867.84;6188216;23;20309;-86
2022/05/19 05:33:10;;;;;;;;;;;;;;;7.10;91.60;99871.84;6214857;23;20007;-86
2022/05/19 05:35:39;;;;;;;;;;;;;;;7.13;91.92;99877.00;6214893;23;19923;-86
2022/05/19 05:38:07;;;;;;;;;;;;;;;7.20;92.11;99878.59;6215030;23;19912;-87
2022/05/19 05:40:33;;;;;;;;;;;;;;;7.11;92.08;99878.84;6214812;23;19923;-87
2022/05/19 05:43:08;;;;;;;;;;;;;;;7.02;91.82;99882.59;6215069;23;19912;-86
2022/05/19 05:45:33;;;;;;;;;;;;;;;7.23;92.91;99883.78;6212816;23;19920;-86
2022/05/19 05:47:59;;;;;;;;;;;;;;;7.14;91.71;99875.25;6214776;23;20018;-87
2022/05/19 05:50:29;;;;;;;;;;;;;;;7.13;92.00;99887.56;6214837;23;19919;-87
2022/05/19 05:52:57;;;;;;;;;;;;;;;7.07;92.04;99888.59;6213165;23;19920;-86
2022/05/19 05:55:25;;;;;;;;;;;;;;;7.15;92.38;99890.16;6214800;23;19958;-87
2022/05/19 05:57:51;;;;;;;;;;;;;;;7.01;91.72;99886.13;6215345;23;19916;-86
2022/05/19 06:00:19;;;;;;;;;;;;;;;7.02;91.75;99890.50;6213132;23;19935;-87
2022/05/19 06:02:53;;;;;;;;;;;;;;;7.07;91.84;99891.22;6188068;23;19927;-88
2022/05/19 06:05:19;;;;;;;;;;;;;;;7.12;93.04;99893.75;6214678;23;19986;-86
2022/05/19 06:07:44;;;;;;;;;;;;;;;7.02;92.09;99892.25;6214986;23;19970;-86
2022/05/19 06:10:13;;;;;;;;;;;;;;;6.98;91.98;99899.38;6213230;23;19935;-86
2022/05/19 06:12:38;;;;;;;;;;;;;;;7.14;92.93;99898.97;6188381;23;19916;-86
2022/05/19 06:15:04;;;;;;;;;;;;;;;7.05;92.48;99900.97;6213178;23;19916;-87
2022/05/19 06:17:39;;;;;;;;;;;;;;;7.16;93.16;99902.44;6188306;23;19943;-86
2022/05/19 06:20:13;;;;;;;;;;;;;;;7.11;92.97;99899.06;6188011;23;20241;-86
2022/05/19 06:22:42;;;;;;;;;;;;;;;7.04;92.75;99904.50;6214415;23;19982;-87
2022/05/19 06:25:11;;;;;;;;;;;;;;;6.95;92.32;99907.34;6214572;23;20312;-87
2022/05/19 06:27:46;;;;;;;;;;;;;;;;;;;;;
2022/05/19 06:30:15;;;;;;;;;;;;;;;7.05;92.81;99914.13;6213086;23;19998;-87
2022/05/19 06:32:50;;;;;;;;;;;;;;;7.05;93.07;99910.63;6212910;23;19947;-86
2022/05/19 06:35:25;;;;;;;;;;;;;;;7.04;93.32;99904.50;6213198;23;20216;-86
2022/05/19 06:37:51;;;;;;;;;;;;;;;7.21;94.33;99904.03;6212878;23;19916;-87
2022/05/19 06:40:19;;;;;;;;;;;;;;;7.07;93.60;99903.56;6188288;23;19912;-86
2022/05/19 06:42:45;;;;;;;;;;;;;;;7.22;94.01;99907.53;6214814;23;19986;-86
2022/05/19 06:45:12;;;;;;;;;;;;;;;7.18;94.39;99905.88;6211246;23;19970;-86
2022/05/19 06:47:39;;;;;;;;;;;;;;;7.13;93.48;99905.16;6187740;23;19970;-86
2022/05/19 06:50:10;;;;;;;;;;;;;;;7.04;93.42;99899.22;6214864;23;19920;-87
2022/05/19 06:52:41;;;;;;;;;;;;;;;7.13;93.55;99907.78;6215133;23;20347;-86
2022/05/19 06:55:06;;;;;;;;;;;;;;;7.06;93.57;99913.22;6187787;23;19919;-86
2022/05/19 06:57:32;;;;;;;;;;;;;;;7.08;93.46;99906.16;6214537;23;19908;-86
2022/05/19 06:59:57;;;;;;;;;;;;;;;7.07;93.98;99914.09;6212686;23;19916;-86
2022/05/19 07:02:23;;;;;;;;;;;;;;;7.11;93.64;99912.25;6187971;23;19912;-86
2022/05/19 07:05:09;;;;;;;;;;;;;;;7.07;93.76;99920.22;6214622;23;19916;-88
2022/05/19 07:07:36;;;;;;;;;;;;;;;7.20;94.14;99914.63;6193283;23;20255;-86
2022/05/19 07:10:05;;;;;;;;;;;;;;;7.10;93.62;99919.28;6187997;23;20277;-89
2022/05/19 07:12:38;;;;;;;;;;;;;;;7.04;93.62;99915.03;6214308;23;19983;-87
2022/05/19 07:15:04;;;;;;;;;;;;;;;7.03;93.45;99910.66;6214629;23;19915;-86
2022/05/19 07:17:32;;;;;;;;;;;;;;;7.22;93.85;99907.53;6215046;23;20287;-86
2022/05/19 07:22:43;;;;;;;;;;;;;;;7.03;93.47;99915.06;6216171;23;20370;-86
2022/05/19 07:25:11;;;;;;;;;;;;;;;7.11;93.41;99909.59;6216074;23;19999;-87
2022/05/19 07:27:39;;;;;;;;;;;;;;;7.08;93.16;99908.78;6216004;23;20316;-87
2022/05/19 07:30:07;;;;;;;;;;;;;;;7.23;94.05;99904.00;6187754;23;19919;-87
2022/05/19 07:32:32;;;;;;;;;;;;;;;7.16;93.50;99902.44;6216067;23;19969;-87
2022/05/19 07:34:58;;;;;;;;;;;;;;;7.17;93.61;99898.91;6216445;23;19916;-87
2022/05/19 07:37:31;;;;;;;;;;;;;;;7.23;93.84;99899.59;6212045;23;19923;-86
2022/05/19 07:39:58;;;;;;;;;;;;;;;7.20;93.63;99894.41;6215252;23;20212;-87
2022/05/19 07:42:26;;;;;;;;;;;;;;;7.19;93.48;99903.19;6189835;23;19918;-87
2022/05/19 07:44:52;;;;;;;;;;;;;;;7.04;94.29;99899.22;6212640;23;20284;-87
2022/05/19 07:47:19;;;;;;;;;;;;;;;7.04;94.18;99893.94;6214366;23;19912;-86
2022/05/19 07:49:54;;;;;;;;;;;;;;;;;;;;;
2022/05/19 07:52:20;;;;;;;;;;;;;;;7.12;94.16;99890.25;6211514;23;19990;-86
2022/05/19 07:54:45;;;;;;;;;;;;;;;7.09;94.15;99894.69;6215475;23;19940;-85
2022/05/19 07:57:19;;;;;;;;;;;;;;;7.11;95.23;99891.16;6214985;23;19970;-88
2022/05/19 07:59:44;;;;;;;;;;;;;;;7.24;96.41;99889.91;6216257;23;19981;-86
2022/05/19 08:02:09;;;;;;;;;;;;;;;7.11;96.48;99883.25;6214936;23;19991;-86
2022/05/19 08:04:34;;;;;;;;;;;;;;;7.13;97.14;99881.44;6214315;23;20350;-89
2022/05/19 08:07:07;;;;;;;;;;;;;;;7.15;97.62;99879.59;6188688;23;19987;-88
2022/05/19 08:12:25;;;;;;;;;;;;;;;7.21;98.04;99877.69;6215663;23;19923;-87
2022/05/19 08:17:49;;;;;;;;;;;;;;;7.33;98.65;99881.75;6214233;23;19926;-86
2022/05/19 08:20:25;;;;;;;;;;;;;;;;;;;;;
2022/05/19 08:22:51;;;;;;;;;;;;;;;7.31;98.76;99883.56;6215631;23;19995;-90
2022/05/19 08:25:16;;;;;;;;;;;;;;;7.26;98.96;99880.22;6189356;23;19943;-86
2022/05/19 08:27:47;;;;;;;;;;;;;;;7.33;99.00;99876.47;6214923;23;19915;-88
2022/05/19 08:30:12;;;;;;;;;;;;;;;7.33;98.96;99875.63;6214500;23;19919;-87
2022/05/19 08:32:44;;;;;;;;;;;;;;;8.63;100.00;99877.81;6216327;23;20383;-86
2022/05/19 08:35:13;;;;;;;;;;;;;;;8.00;100.00;99875.41;6212473;23;20003;-86
2022/05/19 08:37:38;;;;;;;;;;;;;;;7.69;100.00;99876.34;6214234;23;19941;-87
2022/05/19 08:40:07;;;;;;;;;;;;;;;7.61;100.00;99881.84;6213991;23;19938;-87
2022/05/19 08:42:37;;;;;;;;;;;;;;;7.56;100.00;99870.56;6212904;23;19966;-87
2022/05/19 08:45:09;;;;;;;;;;;;;;;7.55;100.00;99873.25;6209824;23;20308;-88
2022/05/19 08:47:34;;;;;;;;;;;;;;;7.66;100.00;99868.50;6214134;23;20228;-88
2022/05/19 08:50:14;;;;;;;;;;;;;;;7.51;100.00;99869.81;6188615;23;19923;-88
2022/05/19 08:52:42;;;;;;;;;;;;;;;7.52;100.00;99879.47;6213919;23;19922;-86
2022/05/19 08:55:14;;;;;;;;;;;;;;;7.48;99.98;99877.81;6212956;23;19916;-86
2022/05/19 08:57:46;;;;;;;;;;;;;;;7.41;100.00;99874.47;6212980;23;20335;-87
2022/05/19 09:00:24;;;;;;;;;;;;;;;7.45;100.00;99869.97;6211187;23;19912;-86
2022/05/19 09:02:58;;;;;;;;;;;;;;;7.39;99.98;99873.66;6187078;23;19943;-87
2022/05/19 09:05:34;;;;;;;;;;;;;;;7.44;99.71;99868.28;6212510;23;19916;-86
2022/05/19 09:08:14;;;;;;;;;;;;;;;7.38;99.63;99869.28;6214205;23;20283;-90
2022/05/19 09:10:55;;;;;;;;;;;;;;;7.49;99.74;99871.63;6212207;23;20235;-89
2022/05/19 09:13:26;;;;;;;;;;;;;;;7.43;99.37;99858.63;6213601;23;19912;-87
2022/05/19 09:15:52;;;;;;;;;;;;;;;7.43;99.58;99851.56;6215316;23;19916;-88
2022/05/19 09:18:20;;;;;;;;;;;;;;;7.37;99.63;99857.03;6214634;23;19990;-86
2022/05/19 09:20:51;;;;;;;;;;;;;;;7.54;99.79;99859.16;6215225;23;20217;-86
2022/05/19 09:23:16;;;;;;;;;;;;;;;7.40;99.75;99859.59;6213243;23;19958;-87
2022/05/19 09:25:45;;;;;;;;;;;;;;;7.46;100.00;99854.13;6214181;23;19912;-86
2022/05/19 09:28:12;;;;;;;;;;;;;;;7.52;99.92;99855.72;6213035;23;19915;-88
2022/05/19 09:30:50;;;;;;;;;;;;;;;7.47;100.00;99855.00;6212374;23;20312;-86
2022/05/19 09:33:25;;;;;;;;;;;;;;;7.40;100.00;99851.69;6214091;23;19912;-87
2022/05/19 09:35:53;;;;;;;;;;;;;;;7.42;100.00;99846.38;6213883;23;19938;-88
2022/05/19 09:38:49;;;;;;;;;;;;;;;7.46;100.00;99848.84;6212742;23;19916;-86
2022/05/19 09:41:28;;;;;;;;;;;;;;;7.49;100.00;99847.91;6214889;23;19920;-87
2022/05/19 09:43:54;;;;;;;;;;;;;;;7.51;100.00;99847.84;6211530;23;19995;-88
2022/05/19 09:46:20;;;;;;;;;;;;;;;7.69;100.00;99849.06;6212891;23;19951;-87
2022/05/19 09:48:47;;;;;;;;;;;;;;;7.65;100.00;99856.22;6212479;23;19912;-86
2022/05/19 09:51:25;;;;;;;;;;;;;;;7.54;100.00;99856.53;6186871;23;19916;-90
2022/05/19 09:54:14;;;;;;;;;;;;;;;7.57;100.00;99848.53;6188542;23;19951;-88
2022/05/19 09:56:44;;;;;;;;;;;;;;;7.50;100.00;99854.03;6188173;23;19912;-88
2022/05/19 09:59:34;;;;;;;;;;;;;;;7.99;100.00;99858.72;6212580;23;20300;-90
2022/05/19 10:02:17;;;;;;;;;;;;;;;8.58;100.00;99859.47;6200474;23;19911;-88
2022/05/19 10:05:03;;;;;;;;;;;;;;;;;;;;;
2022/05/19 10:07:35;;;;;;;;;;;;;;;7.75;100.00;99859.44;6213690;23;19990;-86
2022/05/19 10:10:15;;;;;;;;;;;;;;;7.74;100.00;99858.59;6213087;23;19919;-86
2022/05/19 10:12:53;;;;;;;;;;;;;;;7.68;100.00;99863.19;6213371;23;20319;-88
2022/05/19 10:15:27;;;;;;;;;;;;;;;7.55;100.00;99862.69;6211103;23;20667;-87
2022/05/19 10:18:13;;;;;;;;;;;;;;;7.64;100.00;99865.03;6214303;23;19911;-86
2022/05/19 10:20:47;;;;;;;;;;;;;;;8.35;100.00;99857.59;6212521;23;20003;-88
2022/05/19 10:23:26;;;;;;;;;;;;;;;8.72;100.00;99864.31;6213187;23;20206;-87
2022/05/19 10:26:15;;;;;;;;;;;;;;;8.25;100.00;99861.41;6213932;23;20336;-87
2022/05/19 10:31:38;;;;;;;;;;;;;;;7.77;100.00;99857.63;6213975;23;20002;-86
2022/05/19 10:34:22;;;;;;;;;;;;;;;7.73;100.00;99856.84;6212025;23;19995;-86
2022/05/19 10:37:03;;;;;;;;;;;;;;;7.59;100.00;99856.41;6213574;23;19994;-85
2022/05/19 10:39:47;;;;;;;;;;;;;;;10.00;100.00;99849.06;6213060;23;19943;-87
2022/05/19 10:42:39;;;;;;;;;;;;;;;9.39;100.00;99846.97;6214173;23;19907;-87
2022/05/19 10:45:25;;;;;;;;;;;;;;;9.26;100.00;99844.78;6212203;23;19923;-86
2022/05/19 10:48:12;;;;;;;;;;;;;;;8.67;100.00;99855.69;6214590;23;19916;-89
2022/05/19 10:50:38;;;;;;;;;;;;;;;8.65;100.00;99852.25;6215033;23;19994;-87
2022/05/19 10:53:15;;;;;;;;;;;;;;;9.05;100.00;99850.84;6214368;23;19966;-88
2022/05/19 10:56:00;;;;;;;;;;;;;;;;;;;;;
2022/05/19 10:58:28;;;;;;;;;;;;;;;8.40;100.00;99846.88;6214343;23;20002;-90
2022/05/19 11:01:29;;;;;;;;;;;;;;;;;;;;;
2022/05/19 11:04:24;;;;;;;;;;;;;;;8.21;100.00;99836.91;6195416;23;20072;-88
2022/05/19 11:06:58;;;;;;;;;;;;;;;8.93;100.00;99840.72;6107762;23;19956;-87
2022/05/19 11:09:46;;;;;;;;;;;;;;;;;;;;;
2022/05/19 11:12:16;;;;;;;;;;;;;;;8.46;100.00;99858.13;6215384;23;20293;-87
2022/05/19 11:14:48;;;;;;;;;;;;;;;8.75;100.00;99840.44;6214668;23;19912;-87
2022/05/19 11:17:32;;;;;;;;;;;;;;;9.11;100.00;99842.72;6216424;23;19912;-86
2022/05/19 11:20:04;;;;;;;;;;;;;;;9.14;100.00;99845.22;6216260;23;19922;-87
2022/05/19 11:22:39;;;;;;;;;;;;;;;8.42;100.00;99840.63;6214247;23;20246;-87
2022/05/19 11:29:04;;;;;;;;;;;;;;;9.24;100.00;99833.41;6092465;23;19920;-87
2022/05/19 11:31:29;;;;;;;;;;;;;;;8.59;100.00;99823.41;6074985;23;20003;-88
2022/05/19 11:33:59;;;;;;;;;;;;;;;8.46;100.00;99834.34;6169922;23;19958;-89
2022/05/19 11:36:54;;;;;;;;;;;;;;;9.11;100.00;99829.50;6214639;23;19924;-88
2022/05/19 11:39:51;;;;;;;;;;;;;;;9.47;100.00;99821.09;6213978;23;19923;-87
2022/05/19 11:42:39;;;;;;;;;;;;;;;;;;;;;
2022/05/19 11:45:11;;;;;;;;;;;;;;;9.10;100.00;99825.13;6210431;23;20402;-89
2022/05/19 11:56:10;;;;;;;;;;;;;;;9.38;100.00;99832.91;6215908;23;19927;-87
2022/05/19 11:58:38;;;;;;;;;;;;;;;9.33;100.00;99837.47;6214371;23;19967;-87
2022/05/19 12:01:12;;;;;;;;;;;;;;;8.97;100.00;99839.69;6188788;23;20245;-86
2022/05/19 12:03:56;;;;;;;;;;;;;;;9.45;100.00;99834.38;6214980;23;19918;-88
2022/05/19 12:06:43;;;;;;;;;;;;;;;9.74;100.00;99839.50;6214422;23;19986;-88
2022/05/19 12:09:26;;;;;;;;;;;;;;;8.88;100.00;99835.59;6215494;23;20279;-87
2022/05/19 12:11:56;;;;;;;;;;;;;;;9.54;100.00;99829.66;6214278;23;19955;-86
2022/05/19 12:14:24;;;;;;;;;;;;;;;9.77;100.00;99824.34;6212316;23;20247;-90
2022/05/19 12:16:58;;;;;;;;;;;;;;;9.18;100.00;99815.13;6214311;23;19912;-87
2022/05/19 12:19:33;;;;;;;;;;;;;;;9.21;100.00;99807.06;6215036;23;19919;-87
2022/05/19 12:21:59;;;;;;;;;;;;;;;9.67;100.00;99808.88;6214100;23;19965;-86
2022/05/19 12:24:29;;;;;;;;;;;;;;;9.67;100.00;99808.88;6215150;23;19994;-86
2022/05/19 12:27:00;;;;;;;;;;;;;;;8.97;100.00;99815.91;6188271;23;19923;-88
2022/05/19 12:29:34;;;;;;;;;;;;;;;9.44;100.00;99815.94;6211041;23;20001;-89
2022/05/19 12:32:10;;;;;;;;;;;;;;;9.77;100.00;99810.28;6188097;23;20240;-89
2022/05/19 12:34:37;;;;;;;;;;;;;;;9.33;100.00;99812.81;6213565;23;19986;-88
2022/05/19 12:37:15;;;;;;;;;;;;;;;9.27;100.00;99801.56;6214894;23;19916;-90
2022/05/19 12:40:07;;;;;;;;;;;;;;;9.75;100.00;99797.09;6213144;23;19912;-86
2022/05/19 12:42:48;;;;;;;;;;;;;;;;;;;;;
2022/05/19 12:45:19;;;;;;;;;;;;;;;9.23;100.00;99788.50;6208959;23;19983;-90
2022/05/19 12:47:54;;;;;;;;;;;;;;;9.63;100.00;99795.78;6214408;23;19920;-87
2022/05/19 12:50:22;;;;;;;;;;;;;;;9.80;100.00;99770.47;6212877;23;19946;-88
2022/05/19 12:53:05;;;;;;;;;;;;;;;9.07;100.00;99777.66;6214411;23;19959;-88
2022/05/19 12:55:40;;;;;;;;;;;;;;;9.73;100.00;99769.84;6212759;23;19965;-87
2022/05/19 12:58:25;;;;;;;;;;;;;;;9.87;100.00;99771.06;6215339;23;19958;-87
2022/05/19 13:00:53;;;;;;;;;;;;;;;9.22;100.00;99766.50;6212193;23;19916;-90
2022/05/19 13:03:24;;;;;;;;;;;;;;;9.62;100.00;99767.63;6214364;23;20041;-88
2022/05/19 13:05:54;;;;;;;;;;;;;;;9.91;100.00;99760.31;6215086;23;19919;-91
2022/05/19 13:08:31;;;;;;;;;;;;;;;9.44;100.00;99761.28;6213190;23;19931;-87
2022/05/19 13:10:58;;;;;;;;;;;;;;;9.53;100.00;99756.53;6213666;23;19967;-89
2022/05/19 13:13:54;;;;;;;;;;;;;;;9.88;100.00;99756.94;6214095;23;19912;-88
2022/05/19 13:16:40;;;;;;;;;;;;;;;;;;;;;
2022/05/19 13:19:24;;;;;;;;;;;;;;;9.62;100.00;99742.94;6215655;23;20375;-87
2022/05/19 13:21:55;;;;;;;;;;;;;;;9.84;100.00;99748.22;6214423;23;19916;-89
2022/05/19 13:24:24;;;;;;;;;;;;;;;9.71;100.00;99739.91;6213376;23;19919;-91
2022/05/19 13:30:20;;;;;;;;;;;;;;;9.27;100.00;99743.41;6214152;23;20003;-88
2022/05/19 13:32:33;;;;;;;;;;;;;;;9.89;100.00;99740.09;6214359;23;19934;-87
2022/05/19 13:34:59;;;;;;;;;;;;;;;9.24;100.00;99740.88;6214255;23;20320;-86
2022/05/19 13:37:39;;;;;;;;;;;;;;;9.69;100.00;99751.50;6213577;23;19969;-88
2022/05/19 13:40:27;;;;;;;;;;;;;;;9.97;100.00;99748.59;6214238;23;19916;-89
2022/05/19 13:42:55;;;;;;;;;;;;;;;9.40;100.00;99756.16;6213039;23;19935;-88
2022/05/19 13:45:29;;;;;;;;;;;;;;;9.75;100.00;99753.91;6212401;23;19920;-88
2022/05/19 13:48:05;;;;;;;;;;;;;;;10.12;100.00;99747.13;6213169;23;19916;-87
2022/05/19 13:50:40;;;;;;;;;;;;;;;9.92;100.00;99740.84;6213222;23;19912;-88
2022/05/19 13:53:08;;;;;;;;;;;;;;;9.45;100.00;99746.25;6213083;23;19912;-89
2022/05/19 13:55:39;;;;;;;;;;;;;;;10.08;100.00;99727.81;6214393;23;19987;-87
2022/05/19 13:58:17;;;;;;;;;;;;;;;10.24;100.00;99728.03;6214291;23;19958;-88
2022/05/19 14:00:45;;;;;;;;;;;;;;;9.43;100.00;99732.25;6213677;23;20221;-88
2022/05/19 14:03:33;;;;;;;;;;;;;;;10.00;100.00;99729.94;6181771;23;19958;-88
2022/05/19 14:05:58;;;;;;;;;;;;;;;10.05;100.00;99724.44;6181947;23;19920;-87
2022/05/19 14:08:25;;;;;;;;;;;;;;;9.77;100.00;99720.31;6181973;23;19916;-86
2022/05/19 14:10:52;;;;;;;;;;;;;;;9.58;100.00;99723.69;6181556;23;19939;-88
2022/05/19 14:13:18;;;;;;;;;;;;;;;9.91;100.00;99720.59;6178151;23;20007;-88
2022/05/19 14:15:44;;;;;;;;;;;;;;;10.11;100.00;99727.69;6181463;23;19926;-89
2022/05/19 14:18:14;;;;;;;;;;;;;;;9.37;100.00;99745.69;6180499;23;20503;-89
2022/05/19 14:20:39;;;;;;;;;;;;;;;9.78;100.00;99752.00;6182432;23;19971;-88
2022/05/19 14:23:06;;;;;;;;;;;;;;;9.98;100.00;99745.88;6183925;23;19912;-88
2022/05/19 14:25:34;;;;;;;;;;;;;;;9.41;100.00;99747.28;6159743;23;19916;-88
2022/05/19 14:28:06;;;;;;;;;;;;;;;9.66;100.00;99762.22;6178304;23;19919;-87
2022/05/19 14:30:37;;;;;;;;;;;;;;;10.14;100.00;99754.03;6214464;23;19919;-86
2022/05/19 14:33:07;;;;;;;;;;;;;;;10.22;100.00;99755.53;6215365;23;19912;-88
2022/05/19 14:35:40;;;;;;;;;;;;;;;9.59;100.00;99769.53;6190403;23;19922;-89
2022/05/19 14:38:14;;;;;;;;;;;;;;;10.03;100.00;99764.22;6216699;23;19914;-89
2022/05/19 14:43:36;;;;;;;;;;;;;;;9.48;100.00;99775.22;6192849;23;19962;-89
2022/05/19 14:46:01;;;;;;;;;;;;;;;10.10;100.00;99768.34;6217132;23;19916;-91
2022/05/19 14:48:31;;;;;;;;;;;;;;;10.33;100.00;99769.22;6190783;23;20236;-86
2022/05/19 14:50:57;;;;;;;;;;;;;;;9.62;100.00;99780.84;6216616;23;20329;-86
2022/05/19 14:53:23;;;;;;;;;;;;;;;9.69;100.00;99776.16;6216081;23;19919;-86
2022/05/19 14:56:09;;;;;;;;;;;;;;;10.17;100.00;99776.91;6216188;23;19915;-86
2022/05/19 14:58:38;;;;;;;;;;;;;;;10.21;100.00;99764.38;6214167;23;20645;-85
2022/05/19 15:01:03;;;;;;;;;;;;;;;9.52;100.00;99771.53;6217221;23;20295;-86
2022/05/19 15:03:29;;;;;;;;;;;;;;;10.04;100.00;99758.00;6216955;23;19907;-87
2022/05/19 15:06:04;;;;;;;;;;;;;;;10.26;100.00;99763.28;6216654;23;19920;-93
2022/05/19 15:08:30;;;;;;;;;;;;;;;9.68;100.00;99760.34;6190487;23;19943;-86
2022/05/19 15:10:56;;;;;;;;;;;;;;;10.11;100.00;99753.31;6217283;23;19916;-87
2022/05/19 15:13:22;;;;;;;;;;;;;;;10.45;100.00;99744.84;6216073;23;20324;-86
2022/05/19 15:15:47;;;;;;;;;;;;;;;9.96;100.00;99753.03;6190787;23;20395;-87
2022/05/19 15:21:06;;;;;;;;;;;;;;;10.35;100.00;99757.63;6201157;23;19963;-88
2022/05/19 15:23:31;;;;;;;;;;;;;;;10.27;100.00;99754.41;6216835;23;19912;-87
2022/05/19 15:25:57;;;;;;;;;;;;;;;9.62;100.00;99762.31;6215911;23;19947;-88
2022/05/19 15:28:32;;;;;;;;;;;;;;;10.14;100.00;99756.69;6214374;23;19912;-89
2022/05/19 15:30:57;;;;;;;;;;;;;;;10.47;100.00;99750.09;6175306;23;20244;-88
2022/05/19 15:33:25;;;;;;;;;;;;;;;9.70;100.00;99748.81;6159097;23;19912;-88
2022/05/19 15:35:50;;;;;;;;;;;;;;;9.99;100.00;99741.47;6185640;23;19913;-87
2022/05/19 15:38:20;;;;;;;;;;;;;;;10.42;100.00;99741.47;6159495;23;19924;-89
2022/05/19 15:40:48;;;;;;;;;;;;;;;10.11;100.00;99740.09;6159343;23;20072;-86
2022/05/19 15:43:14;;;;;;;;;;;;;;;9.87;100.00;99740.16;6157459;23;20288;-87
2022/05/19 15:45:58;;;;;;;;;;;;;;;;;;;;;
2022/05/19 15:48:24;;;;;;;;;;;;;;;10.38;100.00;99745.19;6185888;23;19990;-87
2022/05/19 15:50:52;;;;;;;;;;;;;;;9.78;100.00;99757.28;6184261;23;19940;-87
2022/05/19 15:53:21;;;;;;;;;;;;;;;10.22;100.00;99740.50;6159484;23;19922;-88
2022/05/19 15:55:50;;;;;;;;;;;;;;;10.40;100.00;99746.81;6159753;23;19916;-87
2022/05/19 15:58:16;;;;;;;;;;;;;;;9.74;100.00;99752.19;6184224;23;19928;-88
2022/05/19 16:00:42;;;;;;;;;;;;;;;10.19;100.00;99745.91;6184109;23;19912;-86
2022/05/19 16:03:07;;;;;;;;;;;;;;;10.44;100.00;99752.88;6186182;23;19922;-88
2022/05/19 16:05:33;;;;;;;;;;;;;;;9.89;100.00;99756.88;6185720;23;19943;-87
2022/05/19 16:08:01;;;;;;;;;;;;;;;10.01;100.00;99755.50;6184215;23;19954;-88
2022/05/19 16:10:26;;;;;;;;;;;;;;;10.43;100.00;99759.09;6186034;23;20007;-87
2022/05/19 16:12:52;;;;;;;;;;;;;;;10.26;100.00;99752.69;6185570;23;19955;-89
2022/05/19 16:15:21;;;;;;;;;;;;;;;10.00;100.00;99756.41;6183916;23;19917;-88
2022/05/19 16:17:49;;;;;;;;;;;;;;;10.41;100.00;99756.50;6159386;23;19916;-89
2022/05/19 16:20:15;;;;;;;;;;;;;;;10.37;100.00;99768.16;6159319;23;19995;-86
2022/05/19 16:22:42;;;;;;;;;;;;;;;9.87;100.00;99769.28;6183915;23;20010;-88
2022/05/19 16:25:15;;;;;;;;;;;;;;;10.45;100.00;99767.81;6159696;23;19913;-87
2022/05/19 16:27:46;;;;;;;;;;;;;;;10.40;100.00;99775.09;6185765;23;20248;-87
2022/05/19 16:30:21;;;;;;;;;;;;;;;9.83;100.00;99775.63;6157822;23;19922;-93
2022/05/19 16:32:50;;;;;;;;;;;;;;;10.28;100.00;99777.31;6168909;23;20003;-87
2022/05/19 16:35:15;;;;;;;;;;;;;;;10.48;100.00;99778.28;6189301;23;20374;-86
2022/05/19 16:37:43;;;;;;;;;;;;;;;9.62;100.00;99777.31;6215818;23;19916;-88
2022/05/19 16:40:11;;;;;;;;;;;;;;;10.15;100.00;99776.09;6215295;23;19942;-87
2022/05/19 16:42:39;;;;;;;;;;;;;;;10.42;100.00;99773.25;6215752;23;19918;-87
2022/05/19 16:45:05;;;;;;;;;;;;;;;9.75;100.00;99783.03;6213656;23;19927;-87
2022/05/19 16:47:30;;;;;;;;;;;;;;;10.07;100.00;99772.88;6215497;23;20275;-86
2022/05/19 16:49:56;;;;;;;;;;;;;;;10.39;100.00;99774.25;6215519;23;19916;-86
2022/05/19 16:52:24;;;;;;;;;;;;;;;10.08;100.00;99771.97;6215462;23;19916;-87
2022/05/19 16:57:48;;;;;;;;;;;;;;;10.30;100.00;99772.81;6215332;23;19919;-86
2022/05/19 17:00:13;;;;;;;;;;;;;;;10.10;100.00;99772.75;6212497;23;19992;-86
2022/05/19 17:02:42;;;;;;;;;;;;;;;9.93;100.00;99776.97;6215584;23;19995;-86
2022/05/19 17:05:11;;;;;;;;;;;;;;;10.34;100.00;99774.44;6188362;23;19919;-87
2022/05/19 17:07:39;;;;;;;;;;;;;;;10.42;100.00;99774.13;6215332;23;19919;-85
2022/05/19 17:10:10;;;;;;;;;;;;;;;9.74;100.00;99765.41;6215102;23;19956;-86
2022/05/19 17:12:38;;;;;;;;;;;;;;;10.31;100.00;99757.78;6215137;23;20251;-87
2022/05/19 17:15:04;;;;;;;;;;;;;;;10.48;100.00;99763.28;6213472;23;19923;-87
2022/05/19 17:17:50;;;;;;;;;;;;;;;;;;;;;
2022/05/19 17:20:19;;;;;;;;;;;;;;;10.29;100.00;99776.41;6215159;23;20399;-87
2022/05/19 17:22:46;;;;;;;;;;;;;;;10.71;100.00;99795.88;6215105;23;19941;-87
2022/05/19 17:25:14;;;;;;;;;;;;;;;10.11;100.00;99778.00;6188943;23;20289;-87
2022/05/19 17:27:42;;;;;;;;;;;;;;;9.68;100.00;99789.47;6188416;23;19919;-88
2022/05/19 17:30:11;;;;;;;;;;;;;;;9.48;100.00;99783.16;6121076;23;19992;-86
2022/05/19 17:32:37;;;;;;;;;;;;;;;9.16;100.00;99787.88;6122886;23;19928;-85
2022/05/19 17:35:03;;;;;;;;;;;;;;;9.29;100.00;99801.50;6122974;23;20318;-85
2022/05/19 17:37:28;;;;;;;;;;;;;;;9.88;100.00;99804.56;6098350;23;19912;-87
2022/05/19 17:39:53;;;;;;;;;;;;;;;10.29;100.00;99813.47;6122900;23;19913;-87
2022/05/19 17:42:19;;;;;;;;;;;;;;;10.34;100.00;99819.47;6098204;23;20006;-86
2022/05/19 17:44:45;;;;;;;;;;;;;;;9.68;100.00;99823.84;6096679;23;19921;-85
2022/05/19 17:47:10;;;;;;;;;;;;;;;10.28;100.00;99819.69;6122902;23;19920;-86
2022/05/19 17:49:37;;;;;;;;;;;;;;;10.58;100.00;99816.72;6122934;23;20349;-85
2022/05/19 17:52:18;;;;;;;;;;;;;;;;;;;;;
2022/05/19 17:54:44;;;;;;;;;;;;;;;9.88;100.00;99823.09;6170805;23;19982;-86
2022/05/19 17:57:09;;;;;;;;;;;;;;;10.43;100.00;99827.94;6214752;23;19950;-86